sensor_id;sensor_type;location;lat;lon;timestamp;temperature;humidity
35970;DHT22;22448;51.298;6.430;2023-07-28T00:00:53;17.10;99.90
35970;DHT22;22448;51.298;6.430;2023-07-28T00:03:20;17.10;99.90
35970;DHT22;22448;51.298;6.430;2023-07-28T00:05:47;17.10;99.90
35970;DHT22;22448;51.298;6.430;2023-07-28T00:08:15;17.10;99.90
35970;DHT22;22448;51.298;6.430;2023-07-28T00:10:42;17.10;99.90
35970;DHT22;22448;51.298;6.430;2023-07-28T00:13:10;17.10;99.90
35970;DHT22;22448;51.298;6.430;2023-07-28T00:15:37;17.10;99.90
35970;DHT22;22448;51.298;6.430;2023-07-28T00:18:04;17.10;99.90
35970;DHT22;22448;51.298;6.430;2023-07-28T00:20:31;17.10;99.90
35970;DHT22;22448;51.298;6.430;2023-07-28T00:22:58;17.10;99.90
35970;DHT22;22448;51.298;6.430;2023-07-28T00:25:25;17.10;99.90
35970;DHT22;22448;51.298;6.430;2023-07-28T00:27:52;17.10;99.90
35970;DHT22;22448;51.298;6.430;2023-07-28T00:30:19;17.10;99.90
35970;DHT22;22448;51.298;6.430;2023-07-28T00:32:46;17.10;99.90
35970;DHT22;22448;51.298;6.430;2023-07-28T00:35:14;17.10;99.90
35970;DHT22;22448;51.298;6.430;2023-07-28T00:37:41;17.10;99.90
35970;DHT22;22448;51.298;6.430;2023-07-28T00:40:08;17.10;99.90
35970;DHT22;22448;51.298;6.430;2023-07-28T00:42:35;17.10;99.90
35970;DHT22;22448;51.298;6.430;2023-07-28T00:45:03;17.10;99.90
35970;DHT22;22448;51.298;6.430;2023-07-28T00:47:30;17.10;99.90
35970;DHT22;22448;51.298;6.430;2023-07-28T00:49:58;17.10;99.90
35970;DHT22;22448;51.298;6.430;2023-07-28T00:52:24;17.10;99.90
35970;DHT22;22448;51.298;6.430;2023-07-28T00:54:51;17.10;99.90
35970;DHT22;22448;51.298;6.430;2023-07-28T00:57:19;17.10;99.90
35970;DHT22;22448;51.298;6.430;2023-07-28T00:59:46;17.10;99.90
35970;DHT22;22448;51.298;6.430;2023-07-28T01:02:17;17.10;99.90
35970;DHT22;22448;51.298;6.430;2023-07-28T01:04:44;17.10;99.90
35970;DHT22;22448;51.298;6.430;2023-07-28T01:10:22;17.10;99.90
35970;DHT22;22448;51.298;6.430;2023-07-28T01:12:51;17.10;99.90
35970;DHT22;22448;51.298;6.430;2023-07-28T01:15:18;17.10;99.90
35970;DHT22;22448;51.298;6.430;2023-07-28T01:17:45;17.10;99.90
35970;DHT22;22448;51.298;6.430;2023-07-28T01:20:12;17.10;99.90
35970;DHT22;22448;51.298;6.430;2023-07-28T01:27:40;17.10;99.90
35970;DHT22;22448;51.298;6.430;2023-07-28T01:30:10;17.10;99.90
35970;DHT22;22448;51.298;6.430;2023-07-28T01:32:36;17.10;99.90
35970;DHT22;22448;51.298;6.430;2023-07-28T01:35:04;17.10;99.90
35970;DHT22;22448;51.298;6.430;2023-07-28T01:37:31;17.10;99.90
35970;DHT22;22448;51.298;6.430;2023-07-28T01:39:58;17.10;99.90
35970;DHT22;22448;51.298;6.430;2023-07-28T01:42:25;17.10;99.90
35970;DHT22;22448;51.298;6.430;2023-07-28T01:44:52;17.10;99.90
35970;DHT22;22448;51.298;6.430;2023-07-28T01:47:19;17.10;99.90
35970;DHT22;22448;51.298;6.430;2023-07-28T01:49:46;17.10;99.90
35970;DHT22;22448;51.298;6.430;2023-07-28T01:52:13;17.10;99.90
35970;DHT22;22448;51.298;6.430;2023-07-28T01:54:40;17.10;99.90
35970;DHT22;22448;51.298;6.430;2023-07-28T01:57:07;17.10;99.90
35970;DHT22;22448;51.298;6.430;2023-07-28T01:59:34;17.10;99.90
35970;DHT22;22448;51.298;6.430;2023-07-28T02:02:01;17.10;99.90
35970;DHT22;22448;51.298;6.430;2023-07-28T02:04:28;17.10;99.90
35970;DHT22;22448;51.298;6.430;2023-07-28T02:06:55;17.10;99.90
35970;DHT22;22448;51.298;6.430;2023-07-28T02:09:22;17.10;99.90
35970;DHT22;22448;51.298;6.430;2023-07-28T02:11:49;17.10;99.90
35970;DHT22;22448;51.298;6.430;2023-07-28T02:14:16;17.10;99.90
35970;DHT22;22448;51.298;6.430;2023-07-28T02:16:43;17.10;99.90
35970;DHT22;22448;51.298;6.430;2023-07-28T02:19:10;17.10;99.90
35970;DHT22;22448;51.298;6.430;2023-07-28T02:21:37;17.10;99.90
35970;DHT22;22448;51.298;6.430;2023-07-28T02:24:04;17.10;99.90
35970;DHT22;22448;51.298;6.430;2023-07-28T02:26:31;17.10;99.90
35970;DHT22;22448;51.298;6.430;2023-07-28T02:28:59;17.10;99.90
35970;DHT22;22448;51.298;6.430;2023-07-28T02:31:26;17.10;99.90
35970;DHT22;22448;51.298;6.430;2023-07-28T02:33:53;17.10;99.90
35970;DHT22;22448;51.298;6.430;2023-07-28T02:36:20;17.20;99.90
35970;DHT22;22448;51.298;6.430;2023-07-28T02:38:47;17.10;99.90
35970;DHT22;22448;51.298;6.430;2023-07-28T02:41:14;17.10;99.90
35970;DHT22;22448;51.298;6.430;2023-07-28T02:43:41;17.10;99.90
35970;DHT22;22448;51.298;6.430;2023-07-28T02:46:08;17.10;99.90
35970;DHT22;22448;51.298;6.430;2023-07-28T02:48:35;17.10;99.90
35970;DHT22;22448;51.298;6.430;2023-07-28T02:51:02;17.10;99.90
35970;DHT22;22448;51.298;6.430;2023-07-28T02:53:29;17.10;99.90
35970;DHT22;22448;51.298;6.430;2023-07-28T02:55:56;17.10;99.90
35970;DHT22;22448;51.298;6.430;2023-07-28T02:58:23;17.10;99.90
35970;DHT22;22448;51.298;6.430;2023-07-28T03:00:51;17.10;99.90
35970;DHT22;22448;51.298;6.430;2023-07-28T03:03:26;17.10;99.90
35970;DHT22;22448;51.298;6.430;2023-07-28T03:05:54;17.20;99.90
35970;DHT22;22448;51.298;6.430;2023-07-28T03:08:27;17.10;99.90
35970;DHT22;22448;51.298;6.430;2023-07-28T03:11:08;17.20;99.90
35970;DHT22;22448;51.298;6.430;2023-07-28T03:13:35;17.10;99.90
35970;DHT22;22448;51.298;6.430;2023-07-28T03:16:02;17.10;99.90
35970;DHT22;22448;51.298;6.430;2023-07-28T03:18:30;17.20;99.90
35970;DHT22;22448;51.298;6.430;2023-07-28T03:20:57;17.10;99.90
35970;DHT22;22448;51.298;6.430;2023-07-28T03:23:24;17.20;99.90
35970;DHT22;22448;51.298;6.430;2023-07-28T03:25:52;17.20;99.90
35970;DHT22;22448;51.298;6.430;2023-07-28T03:28:19;17.20;99.90
35970;DHT22;22448;51.298;6.430;2023-07-28T03:30:46;17.20;99.90
35970;DHT22;22448;51.298;6.430;2023-07-28T03:33:13;17.20;99.90
35970;DHT22;22448;51.298;6.430;2023-07-28T03:35:40;17.20;99.90
35970;DHT22;22448;51.298;6.430;2023-07-28T03:38:09;17.20;99.90
35970;DHT22;22448;51.298;6.430;2023-07-28T03:40:39;17.20;99.90
35970;DHT22;22448;51.298;6.430;2023-07-28T03:43:06;17.20;99.90
35970;DHT22;22448;51.298;6.430;2023-07-28T03:45:33;17.20;99.90
35970;DHT22;22448;51.298;6.430;2023-07-28T03:48:00;17.20;99.90
35970;DHT22;22448;51.298;6.430;2023-07-28T03:50:27;17.20;99.90
35970;DHT22;22448;51.298;6.430;2023-07-28T03:52:54;17.20;99.90
35970;DHT22;22448;51.298;6.430;2023-07-28T03:55:21;17.20;99.90
35970;DHT22;22448;51.298;6.430;2023-07-28T03:57:48;17.20;99.90
35970;DHT22;22448;51.298;6.430;2023-07-28T04:00:15;17.20;99.90
35970;DHT22;22448;51.298;6.430;2023-07-28T04:02:42;17.20;99.90
35970;DHT22;22448;51.298;6.430;2023-07-28T04:05:09;17.20;99.90
35970;DHT22;22448;51.298;6.430;2023-07-28T04:07:36;17.20;99.90
35970;DHT22;22448;51.298;6.430;2023-07-28T04:10:04;17.20;99.90
35970;DHT22;22448;51.298;6.430;2023-07-28T04:12:31;17.20;99.90
35970;DHT22;22448;51.298;6.430;2023-07-28T04:14:58;17.20;99.90
35970;DHT22;22448;51.298;6.430;2023-07-28T04:17:25;17.20;99.90
35970;DHT22;22448;51.298;6.430;2023-07-28T04:19:52;17.20;99.90
35970;DHT22;22448;51.298;6.430;2023-07-28T04:22:19;17.30;99.90
35970;DHT22;22448;51.298;6.430;2023-07-28T04:24:51;17.30;99.90
35970;DHT22;22448;51.298;6.430;2023-07-28T04:27:18;17.30;99.90
35970;DHT22;22448;51.298;6.430;2023-07-28T04:29:46;17.30;99.90
35970;DHT22;22448;51.298;6.430;2023-07-28T04:32:18;17.40;99.90
35970;DHT22;22448;51.298;6.430;2023-07-28T04:34:48;17.40;99.90
35970;DHT22;22448;51.298;6.430;2023-07-28T04:37:27;17.40;99.90
35970;DHT22;22448;51.298;6.430;2023-07-28T04:39:57;17.40;99.90
35970;DHT22;22448;51.298;6.430;2023-07-28T04:42:30;17.50;99.90
35970;DHT22;22448;51.298;6.430;2023-07-28T04:44:57;17.50;99.90
35970;DHT22;22448;51.298;6.430;2023-07-28T04:47:24;17.50;99.90
35970;DHT22;22448;51.298;6.430;2023-07-28T04:49:52;17.50;99.90
35970;DHT22;22448;51.298;6.430;2023-07-28T04:52:37;17.50;99.90
35970;DHT22;22448;51.298;6.430;2023-07-28T04:55:31;17.50;99.90
35970;DHT22;22448;51.298;6.430;2023-07-28T04:57:58;17.50;99.90
35970;DHT22;22448;51.298;6.430;2023-07-28T05:00:34;17.60;99.90
35970;DHT22;22448;51.298;6.430;2023-07-28T05:03:01;17.60;99.90
35970;DHT22;22448;51.298;6.430;2023-07-28T05:05:33;17.60;99.90
35970;DHT22;22448;51.298;6.430;2023-07-28T05:08:03;17.70;99.90
35970;DHT22;22448;51.298;6.430;2023-07-28T05:10:30;17.80;99.90
35970;DHT22;22448;51.298;6.430;2023-07-28T05:12:57;17.90;99.90
35970;DHT22;22448;51.298;6.430;2023-07-28T05:15:25;17.90;99.90
35970;DHT22;22448;51.298;6.430;2023-07-28T05:17:52;17.90;99.90
35970;DHT22;22448;51.298;6.430;2023-07-28T05:20:41;17.90;99.90
35970;DHT22;22448;51.298;6.430;2023-07-28T05:23:13;17.90;99.90
35970;DHT22;22448;51.298;6.430;2023-07-28T05:25:40;17.90;99.90
35970;DHT22;22448;51.298;6.430;2023-07-28T05:28:08;17.90;99.90
35970;DHT22;22448;51.298;6.430;2023-07-28T05:30:38;17.90;99.90
35970;DHT22;22448;51.298;6.430;2023-07-28T05:33:05;17.90;99.90
35970;DHT22;22448;51.298;6.430;2023-07-28T05:35:45;18.00;99.90
35970;DHT22;22448;51.298;6.430;2023-07-28T05:38:13;18.00;99.90
35970;DHT22;22448;51.298;6.430;2023-07-28T05:40:40;18.00;99.90
35970;DHT22;22448;51.298;6.430;2023-07-28T05:43:07;18.00;99.90
35970;DHT22;22448;51.298;6.430;2023-07-28T05:45:34;18.00;99.90
35970;DHT22;22448;51.298;6.430;2023-07-28T05:48:01;18.00;99.90
35970;DHT22;22448;51.298;6.430;2023-07-28T05:50:28;18.10;99.90
35970;DHT22;22448;51.298;6.430;2023-07-28T05:52:55;18.10;99.90
35970;DHT22;22448;51.298;6.430;2023-07-28T05:55:22;18.10;99.90
35970;DHT22;22448;51.298;6.430;2023-07-28T05:57:49;18.30;99.90
35970;DHT22;22448;51.298;6.430;2023-07-28T06:00:17;18.30;99.90
35970;DHT22;22448;51.298;6.430;2023-07-28T06:02:44;18.30;99.90
35970;DHT22;22448;51.298;6.430;2023-07-28T06:05:27;18.40;99.90
35970;DHT22;22448;51.298;6.430;2023-07-28T06:07:54;18.40;99.90
35970;DHT22;22448;51.298;6.430;2023-07-28T06:10:21;18.40;99.90
35970;DHT22;22448;51.298;6.430;2023-07-28T06:12:48;18.30;99.90
35970;DHT22;22448;51.298;6.430;2023-07-28T06:15:15;18.30;99.90
35970;DHT22;22448;51.298;6.430;2023-07-28T06:17:42;18.30;99.90
35970;DHT22;22448;51.298;6.430;2023-07-28T06:20:09;18.30;99.90
35970;DHT22;22448;51.298;6.430;2023-07-28T06:22:36;18.30;99.90
35970;DHT22;22448;51.298;6.430;2023-07-28T06:25:04;18.30;99.90
35970;DHT22;22448;51.298;6.430;2023-07-28T06:27:31;18.30;99.90
35970;DHT22;22448;51.298;6.430;2023-07-28T06:29:58;18.30;99.90
35970;DHT22;22448;51.298;6.430;2023-07-28T06:32:25;18.30;99.90
35970;DHT22;22448;51.298;6.430;2023-07-28T06:34:54;18.40;99.90
35970;DHT22;22448;51.298;6.430;2023-07-28T06:37:21;18.40;99.90
35970;DHT22;22448;51.298;6.430;2023-07-28T06:39:49;18.50;99.90
35970;DHT22;22448;51.298;6.430;2023-07-28T06:42:18;18.50;99.90
35970;DHT22;22448;51.298;6.430;2023-07-28T06:44:55;18.50;99.90
35970;DHT22;22448;51.298;6.430;2023-07-28T06:47:24;18.50;99.90
35970;DHT22;22448;51.298;6.430;2023-07-28T06:49:51;18.50;99.90
35970;DHT22;22448;51.298;6.430;2023-07-28T06:52:18;18.60;99.90
35970;DHT22;22448;51.298;6.430;2023-07-28T06:54:45;18.60;99.90
35970;DHT22;22448;51.298;6.430;2023-07-28T06:57:14;18.60;99.90
35970;DHT22;22448;51.298;6.430;2023-07-28T06:59:41;18.70;99.90
35970;DHT22;22448;51.298;6.430;2023-07-28T07:02:09;18.80;99.90
35970;DHT22;22448;51.298;6.430;2023-07-28T07:04:37;18.80;99.90
35970;DHT22;22448;51.298;6.430;2023-07-28T07:07:04;18.80;99.90
35970;DHT22;22448;51.298;6.430;2023-07-28T07:09:32;18.80;99.90
35970;DHT22;22448;51.298;6.430;2023-07-28T07:11:59;18.90;99.90
35970;DHT22;22448;51.298;6.430;2023-07-28T07:14:26;19.00;99.90
35970;DHT22;22448;51.298;6.430;2023-07-28T07:16:53;19.00;99.90
35970;DHT22;22448;51.298;6.430;2023-07-28T07:19:20;19.10;99.90
35970;DHT22;22448;51.298;6.430;2023-07-28T07:21:47;19.20;99.90
35970;DHT22;22448;51.298;6.430;2023-07-28T07:24:15;19.20;99.90
35970;DHT22;22448;51.298;6.430;2023-07-28T07:26:43;19.20;99.90
35970;DHT22;22448;51.298;6.430;2023-07-28T07:29:10;19.30;99.90
35970;DHT22;22448;51.298;6.430;2023-07-28T07:31:37;19.30;99.90
35970;DHT22;22448;51.298;6.430;2023-07-28T07:34:04;19.40;99.90
35970;DHT22;22448;51.298;6.430;2023-07-28T07:36:32;19.40;99.90
35970;DHT22;22448;51.298;6.430;2023-07-28T07:38:59;19.40;99.90
35970;DHT22;22448;51.298;6.430;2023-07-28T07:41:26;19.40;99.90
35970;DHT22;22448;51.298;6.430;2023-07-28T07:43:54;19.40;99.90
35970;DHT22;22448;51.298;6.430;2023-07-28T07:46:21;19.50;99.90
35970;DHT22;22448;51.298;6.430;2023-07-28T07:48:49;19.60;99.90
35970;DHT22;22448;51.298;6.430;2023-07-28T07:51:16;19.70;99.90
35970;DHT22;22448;51.298;6.430;2023-07-28T07:53:43;19.80;99.90
35970;DHT22;22448;51.298;6.430;2023-07-28T07:56:11;19.70;99.90
35970;DHT22;22448;51.298;6.430;2023-07-28T07:58:38;19.70;99.90
35970;DHT22;22448;51.298;6.430;2023-07-28T08:01:05;19.80;99.90
35970;DHT22;22448;51.298;6.430;2023-07-28T08:03:32;19.80;99.90
35970;DHT22;22448;51.298;6.430;2023-07-28T08:05:59;19.70;99.90
35970;DHT22;22448;51.298;6.430;2023-07-28T08:08:26;19.70;99.90
35970;DHT22;22448;51.298;6.430;2023-07-28T08:10:54;19.60;99.90
35970;DHT22;22448;51.298;6.430;2023-07-28T08:13:22;19.50;99.90
35970;DHT22;22448;51.298;6.430;2023-07-28T08:15:49;19.40;99.90
35970;DHT22;22448;51.298;6.430;2023-07-28T08:18:16;19.30;99.90
35970;DHT22;22448;51.298;6.430;2023-07-28T08:20:43;19.30;99.90
35970;DHT22;22448;51.298;6.430;2023-07-28T08:23:10;19.30;99.90
35970;DHT22;22448;51.298;6.430;2023-07-28T08:25:37;19.40;99.90
35970;DHT22;22448;51.298;6.430;2023-07-28T08:28:05;19.40;99.90
35970;DHT22;22448;51.298;6.430;2023-07-28T08:30:32;19.30;99.90
35970;DHT22;22448;51.298;6.430;2023-07-28T08:33:00;19.40;99.90
35970;DHT22;22448;51.298;6.430;2023-07-28T08:35:27;19.50;99.90
35970;DHT22;22448;51.298;6.430;2023-07-28T08:37:54;19.60;99.90
35970;DHT22;22448;51.298;6.430;2023-07-28T08:40:21;19.80;99.90
35970;DHT22;22448;51.298;6.430;2023-07-28T08:42:49;20.10;99.90
35970;DHT22;22448;51.298;6.430;2023-07-28T08:45:19;20.30;99.90
35970;DHT22;22448;51.298;6.430;2023-07-28T08:47:46;20.50;99.90
35970;DHT22;22448;51.298;6.430;2023-07-28T08:50:13;20.60;99.90
35970;DHT22;22448;51.298;6.430;2023-07-28T08:52:40;20.70;99.90
35970;DHT22;22448;51.298;6.430;2023-07-28T08:55:08;20.70;99.90
35970;DHT22;22448;51.298;6.430;2023-07-28T08:57:36;20.70;99.90
35970;DHT22;22448;51.298;6.430;2023-07-28T09:00:10;20.80;99.90
35970;DHT22;22448;51.298;6.430;2023-07-28T09:02:41;20.90;99.90
35970;DHT22;22448;51.298;6.430;2023-07-28T09:05:18;20.80;99.90
35970;DHT22;22448;51.298;6.430;2023-07-28T09:07:46;20.90;99.90
35970;DHT22;22448;51.298;6.430;2023-07-28T09:10:14;21.00;99.90
35970;DHT22;22448;51.298;6.430;2023-07-28T09:12:47;21.10;99.90
35970;DHT22;22448;51.298;6.430;2023-07-28T09:15:14;21.20;99.90
35970;DHT22;22448;51.298;6.430;2023-07-28T09:17:44;21.40;99.90
35970;DHT22;22448;51.298;6.430;2023-07-28T09:20:15;21.50;99.90
35970;DHT22;22448;51.298;6.430;2023-07-28T09:22:43;21.70;99.90
35970;DHT22;22448;51.298;6.430;2023-07-28T09:25:15;21.90;99.90
35970;DHT22;22448;51.298;6.430;2023-07-28T09:27:50;22.10;99.90
35970;DHT22;22448;51.298;6.430;2023-07-28T09:30:17;22.10;99.90
35970;DHT22;22448;51.298;6.430;2023-07-28T09:32:48;22.00;99.90
35970;DHT22;22448;51.298;6.430;2023-07-28T09:35:16;22.00;99.90
35970;DHT22;22448;51.298;6.430;2023-07-28T09:37:45;21.80;99.90
35970;DHT22;22448;51.298;6.430;2023-07-28T09:40:16;21.70;99.90
35970;DHT22;22448;51.298;6.430;2023-07-28T09:42:45;21.80;99.90
35970;DHT22;22448;51.298;6.430;2023-07-28T09:45:22;21.90;99.90
35970;DHT22;22448;51.298;6.430;2023-07-28T09:47:55;22.00;99.90
35970;DHT22;22448;51.298;6.430;2023-07-28T09:50:27;22.20;99.90
35970;DHT22;22448;51.298;6.430;2023-07-28T09:52:58;22.40;99.90
35970;DHT22;22448;51.298;6.430;2023-07-28T09:55:28;22.60;99.90
35970;DHT22;22448;51.298;6.430;2023-07-28T09:57:57;22.80;99.90
35970;DHT22;22448;51.298;6.430;2023-07-28T10:00:26;23.10;99.90
35970;DHT22;22448;51.298;6.430;2023-07-28T10:02:53;23.40;99.90
35970;DHT22;22448;51.298;6.430;2023-07-28T10:05:20;23.50;99.90
35970;DHT22;22448;51.298;6.430;2023-07-28T10:07:48;23.60;99.90
35970;DHT22;22448;51.298;6.430;2023-07-28T10:10:16;23.60;99.90
35970;DHT22;22448;51.298;6.430;2023-07-28T10:12:51;23.50;99.90
35970;DHT22;22448;51.298;6.430;2023-07-28T10:15:20;23.50;99.90
35970;DHT22;22448;51.298;6.430;2023-07-28T10:17:49;23.50;99.90
35970;DHT22;22448;51.298;6.430;2023-07-28T10:20:42;23.60;99.90
35970;DHT22;22448;51.298;6.430;2023-07-28T10:23:22;23.80;99.90
35970;DHT22;22448;51.298;6.430;2023-07-28T10:25:59;23.80;99.90
35970;DHT22;22448;51.298;6.430;2023-07-28T10:28:36;23.80;99.90
35970;DHT22;22448;51.298;6.430;2023-07-28T10:31:11;23.80;99.90
35970;DHT22;22448;51.298;6.430;2023-07-28T10:33:40;24.00;99.90
35970;DHT22;22448;51.298;6.430;2023-07-28T10:38:40;23.90;99.90
35970;DHT22;22448;51.298;6.430;2023-07-28T10:41:10;23.60;99.90
35970;DHT22;22448;51.298;6.430;2023-07-28T10:43:38;23.20;99.90
35970;DHT22;22448;51.298;6.430;2023-07-28T10:46:11;22.80;99.90
35970;DHT22;22448;51.298;6.430;2023-07-28T10:48:42;22.30;99.90
35970;DHT22;22448;51.298;6.430;2023-07-28T10:51:11;22.00;99.90
35970;DHT22;22448;51.298;6.430;2023-07-28T10:53:38;21.80;99.90
35970;DHT22;22448;51.298;6.430;2023-07-28T10:56:06;21.80;99.90
35970;DHT22;22448;51.298;6.430;2023-07-28T10:58:37;21.70;99.90
35970;DHT22;22448;51.298;6.430;2023-07-28T11:01:04;21.80;99.90
35970;DHT22;22448;51.298;6.430;2023-07-28T11:03:31;21.80;99.90
35970;DHT22;22448;51.298;6.430;2023-07-28T11:06:03;21.80;99.90
35970;DHT22;22448;51.298;6.430;2023-07-28T11:08:30;21.80;99.90
35970;DHT22;22448;51.298;6.430;2023-07-28T11:10:58;21.80;99.90
35970;DHT22;22448;51.298;6.430;2023-07-28T11:13:26;21.70;99.90
35970;DHT22;22448;51.298;6.430;2023-07-28T11:16:07;21.70;99.90
35970;DHT22;22448;51.298;6.430;2023-07-28T11:18:34;21.70;99.90
35970;DHT22;22448;51.298;6.430;2023-07-28T11:21:01;21.90;99.90
35970;DHT22;22448;51.298;6.430;2023-07-28T11:23:30;22.20;99.90
35970;DHT22;22448;51.298;6.430;2023-07-28T11:25:57;22.50;99.90
35970;DHT22;22448;51.298;6.430;2023-07-28T11:28:25;22.80;99.90
35970;DHT22;22448;51.298;6.430;2023-07-28T11:30:53;23.10;99.90
35970;DHT22;22448;51.298;6.430;2023-07-28T11:33:20;23.40;99.90
35970;DHT22;22448;51.298;6.430;2023-07-28T11:35:48;23.80;99.90
35970;DHT22;22448;51.298;6.430;2023-07-28T11:38:15;24.00;99.90
35970;DHT22;22448;51.298;6.430;2023-07-28T11:40:43;24.20;99.90
35970;DHT22;22448;51.298;6.430;2023-07-28T11:43:10;24.30;99.90
35970;DHT22;22448;51.298;6.430;2023-07-28T11:45:37;24.50;99.90
35970;DHT22;22448;51.298;6.430;2023-07-28T11:48:06;24.40;99.90
35970;DHT22;22448;51.298;6.430;2023-07-28T11:50:40;24.50;99.90
35970;DHT22;22448;51.298;6.430;2023-07-28T11:53:09;25.00;99.90
35970;DHT22;22448;51.298;6.430;2023-07-28T11:55:38;25.50;99.90
35970;DHT22;22448;51.298;6.430;2023-07-28T11:58:06;25.70;99.90
35970;DHT22;22448;51.298;6.430;2023-07-28T12:00:39;25.70;99.90
35970;DHT22;22448;51.298;6.430;2023-07-28T12:03:11;25.70;99.90
35970;DHT22;22448;51.298;6.430;2023-07-28T12:05:58;25.70;99.90
35970;DHT22;22448;51.298;6.430;2023-07-28T12:08:39;25.60;99.90
35970;DHT22;22448;51.298;6.430;2023-07-28T12:11:13;25.40;99.90
35970;DHT22;22448;51.298;6.430;2023-07-28T12:13:48;25.30;99.90
35970;DHT22;22448;51.298;6.430;2023-07-28T12:16:51;25.30;99.90
35970;DHT22;22448;51.298;6.430;2023-07-28T12:19:21;25.50;99.90
35970;DHT22;22448;51.298;6.430;2023-07-28T12:21:48;25.80;99.90
35970;DHT22;22448;51.298;6.430;2023-07-28T12:24:15;25.90;99.90
35970;DHT22;22448;51.298;6.430;2023-07-28T12:26:43;25.70;99.90
35970;DHT22;22448;51.298;6.430;2023-07-28T12:29:11;25.30;99.90
35970;DHT22;22448;51.298;6.430;2023-07-28T12:31:38;24.90;99.90
35970;DHT22;22448;51.298;6.430;2023-07-28T12:34:09;24.60;99.90
35970;DHT22;22448;51.298;6.430;2023-07-28T12:36:36;24.30;99.90
35970;DHT22;22448;51.298;6.430;2023-07-28T12:39:07;24.20;99.90
35970;DHT22;22448;51.298;6.430;2023-07-28T12:41:37;24.00;99.90
35970;DHT22;22448;51.298;6.430;2023-07-28T12:44:09;23.80;99.90
35970;DHT22;22448;51.298;6.430;2023-07-28T12:46:40;23.50;99.90
35970;DHT22;22448;51.298;6.430;2023-07-28T12:49:07;23.30;99.90
35970;DHT22;22448;51.298;6.430;2023-07-28T12:51:35;23.30;99.90
35970;DHT22;22448;51.298;6.430;2023-07-28T12:54:02;23.40;99.90
35970;DHT22;22448;51.298;6.430;2023-07-28T12:56:29;23.70;99.90
35970;DHT22;22448;51.298;6.430;2023-07-28T12:58:59;24.00;99.90
35970;DHT22;22448;51.298;6.430;2023-07-28T13:01:29;24.40;99.90
35970;DHT22;22448;51.298;6.430;2023-07-28T13:03:56;24.50;99.90
35970;DHT22;22448;51.298;6.430;2023-07-28T13:06:23;24.80;99.90
35970;DHT22;22448;51.298;6.430;2023-07-28T13:08:50;25.00;99.90
35970;DHT22;22448;51.298;6.430;2023-07-28T13:11:20;25.20;99.90
35970;DHT22;22448;51.298;6.430;2023-07-28T13:13:47;25.20;99.90
35970;DHT22;22448;51.298;6.430;2023-07-28T13:16:15;24.90;99.90
35970;DHT22;22448;51.298;6.430;2023-07-28T13:18:43;24.70;99.90
35970;DHT22;22448;51.298;6.430;2023-07-28T13:21:10;24.60;99.90
35970;DHT22;22448;51.298;6.430;2023-07-28T13:23:38;24.40;99.90
35970;DHT22;22448;51.298;6.430;2023-07-28T13:26:06;24.30;99.90
35970;DHT22;22448;51.298;6.430;2023-07-28T13:28:33;24.30;99.90
35970;DHT22;22448;51.298;6.430;2023-07-28T13:31:02;24.10;99.90
35970;DHT22;22448;51.298;6.430;2023-07-28T13:33:29;24.00;99.90
35970;DHT22;22448;51.298;6.430;2023-07-28T13:35:56;24.00;99.90
35970;DHT22;22448;51.298;6.430;2023-07-28T13:38:23;23.90;99.90
35970;DHT22;22448;51.298;6.430;2023-07-28T13:40:51;23.90;99.90
35970;DHT22;22448;51.298;6.430;2023-07-28T13:43:18;23.90;99.90
35970;DHT22;22448;51.298;6.430;2023-07-28T13:45:45;23.90;99.90
35970;DHT22;22448;51.298;6.430;2023-07-28T13:48:12;24.10;99.90
35970;DHT22;22448;51.298;6.430;2023-07-28T13:50:42;24.20;99.90
35970;DHT22;22448;51.298;6.430;2023-07-28T13:53:23;24.50;99.90
35970;DHT22;22448;51.298;6.430;2023-07-28T13:55:53;24.90;99.90
35970;DHT22;22448;51.298;6.430;2023-07-28T13:58:24;25.30;99.90
35970;DHT22;22448;51.298;6.430;2023-07-28T14:00:51;25.50;99.90
35970;DHT22;22448;51.298;6.430;2023-07-28T14:03:18;25.50;99.90
35970;DHT22;22448;51.298;6.430;2023-07-28T14:05:45;25.30;99.90
35970;DHT22;22448;51.298;6.430;2023-07-28T14:08:13;25.00;99.90
35970;DHT22;22448;51.298;6.430;2023-07-28T14:10:47;24.60;99.90
35970;DHT22;22448;51.298;6.430;2023-07-28T14:13:14;24.30;99.90
35970;DHT22;22448;51.298;6.430;2023-07-28T14:15:41;24.00;99.90
35970;DHT22;22448;51.298;6.430;2023-07-28T14:18:09;23.70;99.90
35970;DHT22;22448;51.298;6.430;2023-07-28T14:20:36;23.50;99.90
35970;DHT22;22448;51.298;6.430;2023-07-28T14:23:23;23.30;99.90
35970;DHT22;22448;51.298;6.430;2023-07-28T14:25:50;23.20;99.90
35970;DHT22;22448;51.298;6.430;2023-07-28T14:28:18;23.20;99.90
35970;DHT22;22448;51.298;6.430;2023-07-28T14:30:45;23.20;99.90
35970;DHT22;22448;51.298;6.430;2023-07-28T14:33:14;23.20;99.90
35970;DHT22;22448;51.298;6.430;2023-07-28T14:35:43;23.20;99.90
35970;DHT22;22448;51.298;6.430;2023-07-28T14:38:11;23.20;99.90
35970;DHT22;22448;51.298;6.430;2023-07-28T14:40:39;23.10;99.90
35970;DHT22;22448;51.298;6.430;2023-07-28T14:43:07;22.90;99.90
35970;DHT22;22448;51.298;6.430;2023-07-28T14:45:34;22.80;99.90
35970;DHT22;22448;51.298;6.430;2023-07-28T14:48:02;22.80;99.90
35970;DHT22;22448;51.298;6.430;2023-07-28T14:50:29;22.90;99.90
35970;DHT22;22448;51.298;6.430;2023-07-28T14:52:59;22.90;99.90
35970;DHT22;22448;51.298;6.430;2023-07-28T14:55:27;23.10;99.90
35970;DHT22;22448;51.298;6.430;2023-07-28T14:57:54;23.30;99.90
35970;DHT22;22448;51.298;6.430;2023-07-28T15:00:21;23.40;99.90
35970;DHT22;22448;51.298;6.430;2023-07-28T15:02:48;23.50;99.90
35970;DHT22;22448;51.298;6.430;2023-07-28T15:05:15;23.50;99.90
35970;DHT22;22448;51.298;6.430;2023-07-28T15:07:42;23.40;99.90
35970;DHT22;22448;51.298;6.430;2023-07-28T15:10:10;23.30;99.90
35970;DHT22;22448;51.298;6.430;2023-07-28T15:12:37;23.20;99.90
35970;DHT22;22448;51.298;6.430;2023-07-28T15:15:04;23.10;99.90
35970;DHT22;22448;51.298;6.430;2023-07-28T15:17:31;23.00;99.90
35970;DHT22;22448;51.298;6.430;2023-07-28T15:19:58;22.80;99.90
35970;DHT22;22448;51.298;6.430;2023-07-28T15:22:25;22.60;99.90
35970;DHT22;22448;51.298;6.430;2023-07-28T15:24:52;22.40;99.90
35970;DHT22;22448;51.298;6.430;2023-07-28T15:27:19;22.20;99.90
35970;DHT22;22448;51.298;6.430;2023-07-28T15:29:46;22.10;99.90
35970;DHT22;22448;51.298;6.430;2023-07-28T15:32:13;22.10;99.90
35970;DHT22;22448;51.298;6.430;2023-07-28T15:34:40;22.10;99.90
35970;DHT22;22448;51.298;6.430;2023-07-28T15:37:07;22.20;99.90
35970;DHT22;22448;51.298;6.430;2023-07-28T15:39:35;22.30;99.90
35970;DHT22;22448;51.298;6.430;2023-07-28T15:42:02;22.40;99.90
35970;DHT22;22448;51.298;6.430;2023-07-28T15:44:29;22.40;99.90
35970;DHT22;22448;51.298;6.430;2023-07-28T15:46:56;22.40;99.90
35970;DHT22;22448;51.298;6.430;2023-07-28T15:49:23;22.40;99.90